Hauptseite
METAR-TAF:

METAR-TAF

Flughäfen :

Newquay Cornwall Airport

Newquay Cornwall, England

Breite: 50-26N, Länge: 005-00W, Höhe: 119 m

Beobachtung

Neuester Wetterbericht von vor 52 Minuten, um 20:50 UTC
Wind 18 kt aus Süd/Südost
Temperatur 9°C
Luftfeuchtigkeit 87%
Luftdruck 1009 hPa
Sichtweite 10 km oder mehr
Leicht bewölkt in der Höhe von 1300 ft
Durchbrochene Bewölkung in der Höhe von 2800 ft

METAR: EGHQ 122050Z 15018KT 9999 FEW013 BKN028 09/07 Q1009

Zeit: 21:42 (21:42 UTC)

Prognose

Neuester Wetterbericht von vor 4 Stunden und 43 Minuten, um 16:59 UTC
Gültige Prognose vom 12 um 18 UTC bis 12 um 22 UTC
Wind 12 kt aus Südost
Sichtweite 10 km oder mehr
Leicht bewölkt in der Höhe von 2500 ft
Zeitweise
vom 12 um 18 UTC bis 12 um 21 UTC
Sichtweite: 7000 m
Durchbrochene Bewölkung in der Höhe von 900 ft
Regenschauer

TAF: EGHQ 121659Z 1218/1222 14012KT 9999 FEW025 TEMPO 1218/1221 7000 -SHRA BKN009

Wetterbeobachtungen und Prognosen von mehr als 4000 Flughäfen (METAR und TAF Bericht).

Die verfügbaren Stationen werden durch gelbe und rote Markierungen auf der Karte dargestellt.

Führen Sie die Maus auf sie, um den Namen der Station zu sehen.

Darauf klicken, um die Beobachtung von Wetterbeobachtungen und Prognosen zu sehen.

Um die Karte zu ändern : klicken Sie auf den grünen Tasten mit einem schwarzen Kreuz Zum Vergrößern, auf den grünen Button mit einem Gedankenstrich zu verkleinern, oder auf die grünen Pfeile für benachbarte Karten.


METAR-TAF: